Terminal Aerodrome Forecast
Issued by NWS

Home | Current Version | Previous Version | Text Only | Print | Product List | Glossary On
Versions: 1 2 3 4 5 6 7 8 9 10 11 12 13 14 15 16 17 18 19
000
FTUS44 KLIX 212300 RRA
TAFGPT
TAF
KGPT 212340Z 2200/2224 07004KT P6SM OVC013
     FM220400 09006KT P6SM BKN010
     FM221000 12003KT 3SM BR BKN005
     FM221530 13006KT P6SM BKN012
     FM221730 14009KT P6SM BKN025=

USA.gov is the U.S. government's official web portal to all federal, state and local government web resources and services.